Time;durP1;ratioP1;P1;durP2;ratioP2;P2;SDS_P1;SDS_P2;PMS_P1;PMS_P2;Temp;Humidity;BMP_temperature;BMP_pressure;BME280_temperature;BME280_humidity;BME280_pressure;Samples;Min_cycle;Max_cycle;Signal;HPM_P1;HPM_P2
2021/12/18 00:01:05;;;;;;;27.92;24.95;;;1.60;99.90;;;;;;5028060;28;20037;-75
2021/12/18 00:03:31;;;;;;;27.42;20.52;;;1.50;99.90;;;;;;5029405;28;20074;-75
2021/12/18 00:05:57;;;;;;;26.75;21.27;;;1.50;99.90;;;;;;5032353;28;20033;-74
2021/12/18 00:08:23;;;;;;;43.53;22.20;;;1.50;99.90;;;;;;5033097;28;20018;-75
2021/12/18 00:10:49;;;;;;;21.60;13.73;;;1.50;99.90;;;;;;5032822;28;20028;-75
2021/12/18 00:13:16;;;;;;;100.28;62.67;;;1.50;99.90;;;;;;5033137;28;20022;-75
2021/12/18 00:15:41;;;;;;;50.30;27.08;;;1.50;99.90;;;;;;5032912;28;20386;-75
2021/12/18 00:18:07;;;;;;;56.88;39.03;;;1.40;99.90;;;;;;5032903;28;20022;-75
2021/12/18 00:20:35;;;;;;;35.85;23.00;;;1.50;99.90;;;;;;5032735;28;20041;-75
2021/12/18 00:23:01;;;;;;;44.13;35.92;;;1.40;99.90;;;;;;5032680;28;20018;-75
2021/12/18 00:25:27;;;;;;;14.10;9.60;;;1.40;99.90;;;;;;5032570;28;20558;-74
2021/12/18 00:27:52;;;;;;;23.17;15.98;;;1.40;99.90;;;;;;5031503;28;20395;-76
2021/12/18 00:30:18;;;;;;;19.52;10.52;;;1.40;99.90;;;;;;5031326;28;20507;-75
2021/12/18 00:32:44;;;;;;;18.67;7.95;;;1.30;99.90;;;;;;5032629;28;20022;-76
2021/12/18 00:35:09;;;;;;;17.75;10.93;;;1.30;99.90;;;;;;5032532;28;20053;-75
2021/12/18 00:37:35;;;;;;;20.92;10.02;;;1.30;99.90;;;;;;5030964;28;20026;-76
2021/12/18 00:40:05;;;;;;;20.50;12.05;;;1.30;99.90;;;;;;5032462;28;20137;-75
2021/12/18 00:42:46;;;;;;;15.55;9.32;;;1.30;99.90;;;;;;5031322;28;20060;-75
2021/12/18 00:45:16;;;;;;;20.13;9.82;;;1.30;99.90;;;;;;5032422;28;20072;-75
2021/12/18 00:47:43;;;;;;;18.40;9.20;;;1.20;99.90;;;;;;5032556;28;20104;-75
2021/12/18 00:50:17;;;;;;;18.48;9.48;;;1.20;99.90;;;;;;5031162;28;20098;-75
2021/12/18 00:52:42;;;;;;;32.45;17.33;;;1.20;99.90;;;;;;5032595;28;20074;-75
2021/12/18 00:55:09;;;;;;;23.50;12.32;;;1.20;99.90;;;;;;5032271;28;20030;-75
2021/12/18 00:57:36;;;;;;;18.52;10.50;;;1.20;99.90;;;;;;5032235;28;20425;-75
2021/12/18 01:00:04;;;;;;;26.27;14.32;;;1.20;99.90;;;;;;5030853;28;20038;-75
2021/12/18 01:02:30;;;;;;;22.13;11.25;;;1.20;99.90;;;;;;5032158;28;20028;-74
2021/12/18 01:04:56;;;;;;;18.65;8.40;;;1.20;99.90;;;;;;5032295;28;20446;-75
2021/12/18 01:07:22;;;;;;;17.83;9.73;;;1.20;99.90;;;;;;5032045;28;20101;-75
2021/12/18 01:12:17;;;;;;;24.55;9.57;;;1.20;99.90;;;;;;5032273;28;20082;-75
2021/12/18 01:15:00;;;;;;;21.55;10.50;;;1.20;99.90;;;;;;5031930;28;20021;-75
2021/12/18 01:22:48;;;;;;;28.92;9.68;;;1.20;99.90;;;;;;5031874;28;20094;-75
2021/12/18 01:25:16;;;;;;;23.55;9.95;;;1.10;99.90;;;;;;5031824;28;20391;-75
2021/12/18 01:27:42;;;;;;;24.33;8.63;;;1.10;99.90;;;;;;5032005;28;20105;-75
2021/12/18 01:30:11;;;;;;;20.63;9.25;;;1.20;99.90;;;;;;5031755;28;20056;-75
2021/12/18 01:32:37;;;;;;;22.45;10.35;;;1.10;99.90;;;;;;5031706;28;20037;-75
2021/12/18 01:35:04;;;;;;;27.65;12.05;;;1.10;99.90;;;;;;5031719;28;20041;-75
2021/12/18 01:37:29;;;;;;;28.70;11.38;;;1.10;99.90;;;;;;5030520;28;20390;-75
2021/12/18 01:39:56;;;;;;;22.48;12.43;;;1.10;99.90;;;;;;5031529;28;20033;-74
2021/12/18 01:43:09;;;;;;;24.08;11.10;;;1.10;99.90;;;;;;5030359;28;20483;-75
2021/12/18 01:53:23;;;;;;;28.05;13.63;;;1.00;99.90;;;;;;5031827;28;20453;-74
2021/12/18 01:55:50;;;;;;;30.20;14.95;;;1.00;99.90;;;;;;5031351;28;20026;-74
2021/12/18 01:58:22;;;;;;;34.10;15.00;;;1.00;99.90;;;;;;5031445;28;20052;-74
2021/12/18 02:00:49;;;;;;;28.75;14.25;;;1.00;99.90;;;;;;5031256;28;20033;-74
2021/12/18 02:03:14;;;;;;;24.40;14.25;;;1.00;99.90;;;;;;5030022;28;20467;-75
2021/12/18 02:05:40;;;;;;;30.98;13.63;;;1.00;99.90;;;;;;5031152;28;20032;-75
2021/12/18 02:08:07;;;;;;;27.67;13.15;;;1.00;99.90;;;;;;5031395;28;20531;-75
2021/12/18 02:10:44;;;;;;;25.83;13.82;;;1.00;99.90;;;;;;5031085;28;20022;-74
2021/12/18 02:21:26;;;;;;;29.30;14.00;;;1.00;99.90;;;;;;5030697;28;20049;-74
2021/12/18 02:23:52;;;;;;;28.55;15.05;;;1.00;99.90;;;;;;5029812;28;20014;-74
2021/12/18 02:26:18;;;;;;;24.88;13.77;;;1.00;99.90;;;;;;5029671;28;20402;-75
2021/12/18 02:28:47;;;;;;;21.45;12.27;;;1.00;99.90;;;;;;5029651;28;20526;-74
2021/12/18 02:31:13;;;;;;;30.50;13.70;;;1.00;99.90;;;;;;5029617;28;20443;-74
2021/12/18 02:33:39;;;;;;;25.67;13.57;;;1.00;99.90;;;;;;5029444;28;20021;-75
2021/12/18 02:36:08;;;;;;;42.95;15.80;;;1.00;99.90;;;;;;5029651;28;20029;-75
2021/12/18 02:43:45;;;;;;;27.30;13.50;;;1.00;99.90;;;;;;5030682;28;20037;-75
2021/12/18 02:46:17;;;;;;;26.77;14.23;;;1.00;99.90;;;;;;5030785;28;20037;-75
2021/12/18 02:48:42;;;;;;;35.33;14.77;;;1.00;99.90;;;;;;5029349;28;20033;-75
2021/12/18 02:51:10;;;;;;;23.20;11.90;;;1.10;99.90;;;;;;5030537;28;20257;-75
2021/12/18 02:53:37;;;;;;;24.65;12.57;;;1.10;99.90;;;;;;5030524;28;20033;-75
2021/12/18 02:56:06;;;;;;;22.17;13.02;;;1.00;99.90;;;;;;5028687;28;20076;-75
2021/12/18 02:58:36;;;;;;;26.83;12.55;;;1.00;99.90;;;;;;5030581;28;20029;-74
2021/12/18 03:01:04;;;;;;;29.40;13.43;;;1.10;99.90;;;;;;5030289;27;20037;-75
2021/12/18 03:03:33;;;;;;;27.15;12.40;;;1.10;99.90;;;;;;5030207;28;20018;-75
2021/12/18 03:08:56;;;;;;;29.58;13.43;;;1.10;99.90;;;;;;5020120;28;20474;-74
2021/12/18 03:27:18;;;;;;;32.63;15.63;;;1.00;99.90;;;;;;5029953;28;20394;-75
2021/12/18 03:29:44;;;;;;;25.73;13.15;;;1.00;99.90;;;;;;5028684;28;20521;-75
2021/12/18 03:32:10;;;;;;;26.15;13.07;;;1.00;99.90;;;;;;5029988;28;20026;-74
2021/12/18 03:34:36;;;;;;;28.70;14.57;;;1.00;99.90;;;;;;5028617;28;20030;-74
2021/12/18 03:37:02;;;;;;;20.95;11.45;;;1.00;99.90;;;;;;5028446;28;20026;-75
2021/12/18 03:39:28;;;;;;;28.23;12.95;;;1.00;99.90;;;;;;5028038;28;20113;-75
2021/12/18 03:41:54;;;;;;;21.55;11.85;;;1.00;99.90;;;;;;5028649;28;20044;-75
2021/12/18 03:44:21;;;;;;;26.65;13.10;;;1.00;99.90;;;;;;5028679;28;20036;-75
2021/12/18 03:46:47;;;;;;;27.65;12.73;;;1.00;99.90;;;;;;5028568;28;20071;-76
2021/12/18 03:49:12;;;;;;;22.98;12.98;;;1.00;99.90;;;;;;5029848;28;20055;-75
2021/12/18 03:51:38;;;;;;;28.23;12.65;;;1.00;99.90;;;;;;5028591;28;20029;-75
2021/12/18 03:54:04;;;;;;;24.02;10.63;;;1.00;99.90;;;;;;5028565;28;20116;-75
2021/12/18 03:56:30;;;;;;;23.52;10.90;;;0.90;99.90;;;;;;5029632;28;20029;-76
2021/12/18 03:58:56;;;;;;;22.33;10.88;;;0.90;99.90;;;;;;5028466;28;20025;-74
2021/12/18 04:01:21;;;;;;;29.80;14.45;;;0.90;99.90;;;;;;5028050;28;20033;-76
2021/12/18 04:03:47;;;;;;;25.42;11.35;;;0.90;99.90;;;;;;5029742;28;20075;-75
2021/12/18 04:06:14;;;;;;;24.98;13.32;;;0.90;99.90;;;;;;5029610;28;20029;-75
2021/12/18 04:08:39;;;;;;;24.17;13.07;;;0.90;99.90;;;;;;5029483;28;20021;-75
2021/12/18 04:11:05;;;;;;;27.00;11.18;;;0.90;99.90;;;;;;5029544;28;20017;-75
2021/12/18 04:13:31;;;;;;;23.80;12.07;;;0.90;99.90;;;;;;5028196;28;20053;-75
2021/12/18 04:15:57;;;;;;;24.38;12.43;;;0.90;99.90;;;;;;5029413;28;20052;-74
2021/12/18 04:18:22;;;;;;;24.45;10.18;;;0.90;99.90;;;;;;5032813;28;20130;-75
2021/12/18 04:20:48;;;;;;;21.60;10.80;;;0.90;99.90;;;;;;5039604;27;20109;-75
2021/12/18 04:23:14;;;;;;;23.10;10.88;;;0.90;99.90;;;;;;5039387;27;20512;-76
2021/12/18 04:25:40;;;;;;;25.30;11.63;;;0.80;99.90;;;;;;5056519;27;20041;-75
2021/12/18 04:28:07;;;;;;;26.42;10.68;;;0.80;99.90;;;;;;5075738;27;20029;-74
2021/12/18 04:30:32;;;;;;;23.35;10.75;;;0.80;99.90;;;;;;5063103;27;20027;-75
2021/12/18 04:32:58;;;;;;;18.67;8.32;;;0.80;99.90;;;;;;5056692;27;20027;-76
2021/12/18 04:35:24;;;;;;;18.20;10.27;;;0.80;99.90;;;;;;5053512;27;20056;-75
2021/12/18 04:37:50;;;;;;;19.77;10.27;;;0.80;99.90;;;;;;5031152;28;20097;-75
2021/12/18 04:40:15;;;;;;;21.38;9.48;;;0.80;99.90;;;;;;5037780;28;20030;-74
2021/12/18 04:42:41;;;;;;;30.65;10.98;;;0.80;99.90;;;;;;5030802;28;20596;-75
2021/12/18 04:45:07;;;;;;;20.75;9.23;;;0.80;99.90;;;;;;5032144;28;20100;-74
2021/12/18 04:47:33;;;;;;;17.38;10.70;;;0.80;99.90;;;;;;5033631;28;20017;-75
2021/12/18 04:49:59;;;;;;;23.77;10.40;;;0.80;99.90;;;;;;5036560;28;20487;-75
2021/12/18 04:52:25;;;;;;;16.52;9.02;;;0.80;99.90;;;;;;5037923;28;20025;-75
2021/12/18 04:54:51;;;;;;;19.50;8.88;;;0.80;99.90;;;;;;5034057;28;20021;-74
2021/12/18 04:57:17;;;;;;;19.30;8.95;;;0.80;99.90;;;;;;5035334;28;20028;-75
2021/12/18 04:59:44;;;;;;;14.48;8.07;;;0.70;99.90;;;;;;5039374;28;20033;-74
2021/12/18 05:02:17;;;;;;;14.52;8.88;;;0.70;99.90;;;;;;5040601;28;20017;-75
2021/12/18 05:04:43;;;;;;;23.92;8.68;;;0.70;99.90;;;;;;5038595;28;20449;-74
2021/12/18 05:07:10;;;;;;;13.32;8.38;;;0.80;99.90;;;;;;5036197;28;20029;-74
2021/12/18 05:09:38;;;;;;;18.42;7.90;;;0.80;99.90;;;;;;5032686;28;20029;-74
2021/12/18 05:12:04;;;;;;;20.50;9.57;;;0.80;99.90;;;;;;5038946;28;20025;-74
2021/12/18 05:14:29;;;;;;;16.92;8.68;;;0.80;99.90;;;;;;5044811;28;20017;-74
2021/12/18 05:16:55;;;;;;;17.90;10.05;;;0.80;99.90;;;;;;5032578;28;20021;-74
2021/12/18 05:19:21;;;;;;;20.75;9.77;;;0.80;99.90;;;;;;5033483;28;20417;-74
2021/12/18 05:21:47;;;;;;;20.85;8.50;;;0.80;99.90;;;;;;5036127;28;20036;-74
2021/12/18 05:24:13;;;;;;;21.25;10.00;;;0.80;99.90;;;;;;5033641;28;20029;-74
2021/12/18 05:26:38;;;;;;;19.98;9.75;;;0.80;99.90;;;;;;5033110;28;20026;-75
2021/12/18 05:29:04;;;;;;;21.52;8.90;;;0.80;99.90;;;;;;5038595;28;20130;-75
2021/12/18 05:31:30;;;;;;;25.80;11.50;;;0.80;99.90;;;;;;5037508;28;20021;-76
2021/12/18 05:33:59;;;;;;;28.75;11.48;;;0.80;99.90;;;;;;5036593;28;20025;-74
2021/12/18 05:39:05;;;;;;;18.52;10.10;;;0.80;99.90;;;;;;5038021;28;20048;-74
2021/12/18 05:41:31;;;;;;;18.60;10.73;;;0.80;99.90;;;;;;5030382;28;20490;-75
2021/12/18 05:43:58;;;;;;;26.02;11.80;;;0.80;99.90;;;;;;5041189;28;20048;-74
2021/12/18 05:46:24;;;;;;;22.92;10.82;;;0.80;99.90;;;;;;5050073;27;20048;-75
2021/12/18 05:48:50;;;;;;;21.75;11.38;;;0.80;99.90;;;;;;5040027;28;20487;-74
2021/12/18 05:51:16;;;;;;;21.73;10.80;;;0.80;99.90;;;;;;5031453;28;20032;-75
2021/12/18 05:53:41;;;;;;;20.00;10.18;;;0.80;99.90;;;;;;5030041;28;20026;-74
2021/12/18 05:56:07;;;;;;;21.05;9.85;;;0.70;99.90;;;;;;5031454;28;20017;-75
2021/12/18 05:58:33;;;;;;;22.48;9.73;;;0.70;99.90;;;;;;5031385;28;20505;-74
2021/12/18 06:00:59;;;;;;;25.85;12.02;;;0.70;99.90;;;;;;5038846;28;20577;-74
2021/12/18 06:03:24;;;;;;;17.88;9.57;;;0.70;99.90;;;;;;5050993;28;20065;-74
2021/12/18 06:05:50;;;;;;;18.75;9.20;;;0.70;99.90;;;;;;5051118;28;20374;-74
2021/12/18 06:08:16;;;;;;;24.25;10.73;;;0.60;99.90;;;;;;5051134;28;20036;-75
2021/12/18 06:10:41;;;;;;;21.38;9.65;;;0.70;99.90;;;;;;5049820;28;20028;-74
2021/12/18 06:13:07;;;;;;;19.92;8.55;;;0.60;99.90;;;;;;5049828;28;20112;-75
2021/12/18 06:15:33;;;;;;;19.08;8.80;;;0.60;99.90;;;;;;5050153;28;20020;-74
2021/12/18 06:17:59;;;;;;;19.02;10.27;;;0.70;99.90;;;;;;5049720;28;20505;-75
2021/12/18 06:20:27;;;;;;;19.08;9.57;;;0.60;99.90;;;;;;5039566;28;20104;-74
2021/12/18 06:22:54;;;;;;;14.73;7.95;;;0.60;99.90;;;;;;5029614;28;20021;-75
2021/12/18 06:25:19;;;;;;;25.15;10.73;;;0.60;99.90;;;;;;5030844;28;20021;-74
2021/12/18 06:27:45;;;;;;;18.42;9.77;;;0.60;99.90;;;;;;5030934;28;20421;-74
2021/12/18 06:30:12;;;;;;;17.73;9.10;;;0.60;99.90;;;;;;5030587;28;20490;-74
2021/12/18 06:32:39;;;;;;;29.70;15.15;;;0.60;99.90;;;;;;5031861;28;20029;-75
2021/12/18 06:35:06;;;;;;;27.55;14.55;;;0.60;99.90;;;;;;5066611;27;20522;-75
2021/12/18 06:37:31;;;;;;;23.90;11.70;;;0.60;99.90;;;;;;5128935;27;20073;-75
2021/12/18 06:39:57;;;;;;;58.20;27.35;;;0.50;99.90;;;;;;5040931;28;20494;-75
2021/12/18 06:42:23;;;;;;;18.30;10.80;;;0.50;99.90;;;;;;5103187;27;20098;-75
2021/12/18 06:44:48;;;;;;;127.75;54.30;;;0.60;99.90;;;;;;5153995;27;20030;-75
2021/12/18 06:47:14;;;;;;;56.63;24.35;;;0.60;99.90;;;;;;5134216;27;20104;-75
2021/12/18 06:49:39;;;;;;;89.07;36.28;;;0.60;99.90;;;;;;5064048;27;20023;-75
2021/12/18 06:52:05;;;;;;;29.83;13.65;;;0.60;99.90;;;;;;5099650;27;20025;-75
2021/12/18 06:54:31;;;;;;;21.08;10.68;;;0.60;99.90;;;;;;5048403;28;20031;-74
2021/12/18 06:56:56;;;;;;;21.33;9.60;;;0.60;99.90;;;;;;5049072;28;20025;-75
2021/12/18 06:59:22;;;;;;;22.50;11.40;;;0.60;99.90;;;;;;5050195;28;20055;-74
2021/12/18 07:01:50;;;;;;;73.72;33.95;;;0.60;99.90;;;;;;5050312;28;20025;-75
2021/12/18 07:04:16;;;;;;;25.38;13.13;;;0.60;99.90;;;;;;5093936;27;20101;-74
2021/12/18 07:06:41;;;;;;;27.90;11.65;;;0.60;99.90;;;;;;5151192;27;20118;-74
2021/12/18 07:09:07;;;;;;;19.20;10.40;;;0.60;99.90;;;;;;5151435;27;20071;-74
2021/12/18 07:11:32;;;;;;;23.05;11.32;;;0.60;99.90;;;;;;5151530;27;20023;-75
2021/12/18 07:13:58;;;;;;;45.15;25.25;;;0.60;99.90;;;;;;5151041;27;20023;-74
2021/12/18 07:16:24;;;;;;;21.08;10.70;;;0.60;99.90;;;;;;5152822;27;20019;-75
2021/12/18 07:18:51;;;;;;;50.58;27.83;;;0.60;99.90;;;;;;5148051;27;20487;-74
2021/12/18 07:21:17;;;;;;;21.42;11.88;;;0.60;99.90;;;;;;5154639;27;20038;-74
2021/12/18 07:23:42;;;;;;;19.63;10.30;;;0.60;99.90;;;;;;5154784;27;20037;-74
2021/12/18 07:26:08;;;;;;;26.00;13.23;;;0.60;99.90;;;;;;5107913;27;20017;-74
2021/12/18 07:28:34;;;;;;;33.92;17.63;;;0.60;99.90;;;;;;5105349;27;20488;-74
2021/12/18 07:30:59;;;;;;;44.10;19.92;;;0.60;99.90;;;;;;5115241;27;20015;-75
2021/12/18 07:33:25;;;;;;;33.40;16.48;;;0.60;99.90;;;;;;5153375;27;20023;-74
2021/12/18 07:35:50;;;;;;;39.60;18.00;;;0.60;99.90;;;;;;5154459;27;20113;-74
2021/12/18 07:38:16;;;;;;;36.15;18.13;;;0.60;99.90;;;;;;5154582;27;20023;-75
2021/12/18 07:40:42;;;;;;;37.70;16.23;;;0.60;99.90;;;;;;5153190;27;20085;-74
2021/12/18 07:43:08;;;;;;;33.47;16.20;;;0.60;99.90;;;;;;5154547;27;20520;-74
2021/12/18 07:45:34;;;;;;;37.50;17.92;;;0.60;99.90;;;;;;5153133;27;20026;-74
2021/12/18 07:48:02;;;;;;;34.35;15.00;;;0.70;99.90;;;;;;5154459;27;20030;-74
2021/12/18 07:50:28;;;;;;;25.52;12.57;;;0.70;99.90;;;;;;5154339;27;20020;-74
2021/12/18 07:52:53;;;;;;;27.77;13.18;;;0.70;99.90;;;;;;5153160;27;20383;-75
2021/12/18 07:55:19;;;;;;;23.17;11.10;;;0.70;99.90;;;;;;5153871;27;20018;-74
2021/12/18 07:57:45;;;;;;;20.52;12.27;;;0.70;99.90;;;;;;5152999;27;20499;-75
2021/12/18 08:00:13;;;;;;;18.25;10.82;;;0.70;99.90;;;;;;5152989;27;20038;-75
2021/12/18 08:02:40;;;;;;;28.00;11.57;;;0.80;99.90;;;;;;5153025;27;20476;-75
2021/12/18 08:05:07;;;;;;;22.42;11.18;;;0.80;99.90;;;;;;5099594;27;20029;-75
2021/12/18 08:07:33;;;;;;;21.58;9.40;;;0.80;99.90;;;;;;5029900;27;20117;-75
2021/12/18 08:09:59;;;;;;;22.55;11.05;;;0.80;99.90;;;;;;5028982;28;20032;-75
2021/12/18 08:12:24;;;;;;;20.38;9.80;;;0.90;99.90;;;;;;5027353;28;20104;-75
2021/12/18 08:14:50;;;;;;;18.77;11.13;;;0.90;99.90;;;;;;5033744;28;20463;-75
2021/12/18 08:17:16;;;;;;;21.88;9.57;;;0.90;99.90;;;;;;5072143;28;20014;-75
2021/12/18 08:19:41;;;;;;;19.13;8.57;;;0.90;99.90;;;;;;5036360;28;20067;-74
2021/12/18 08:22:07;;;;;;;18.20;9.38;;;0.90;99.90;;;;;;5050910;28;20050;-75
2021/12/18 08:24:32;;;;;;;20.42;10.38;;;0.90;99.90;;;;;;5047754;28;20025;-74
2021/12/18 08:26:58;;;;;;;19.30;10.05;;;1.00;99.90;;;;;;5052093;28;20028;-76
2021/12/18 08:29:24;;;;;;;18.73;11.68;;;1.00;99.90;;;;;;5032284;27;20143;-75
2021/12/18 08:31:51;;;;;;;16.58;9.50;;;1.00;99.90;;;;;;5031324;28;20018;-76
2021/12/18 08:34:22;;;;;;;22.90;10.90;;;1.00;99.90;;;;;;5031171;28;20022;-75
2021/12/18 08:36:48;;;;;;;18.08;8.73;;;1.00;99.90;;;;;;5032624;28;20057;-75
2021/12/18 08:39:13;;;;;;;16.70;10.20;;;1.00;99.90;;;;;;5036159;28;20060;-74
2021/12/18 08:41:42;;;;;;;15.65;9.63;;;1.10;99.90;;;;;;5051367;27;20068;-74
2021/12/18 08:44:07;;;;;;;12.85;8.02;;;1.10;99.90;;;;;;5050620;28;20029;-75
2021/12/18 08:46:34;;;;;;;17.02;9.38;;;1.10;99.90;;;;;;5051103;28;20423;-76
2021/12/18 08:49:00;;;;;;;16.10;7.75;;;1.10;99.90;;;;;;5052276;28;20013;-75
2021/12/18 08:51:25;;;;;;;13.30;7.90;;;1.10;99.90;;;;;;5042924;27;20044;-74
2021/12/18 08:53:52;;;;;;;18.42;8.82;;;1.10;99.90;;;;;;5035659;27;20112;-74
2021/12/18 08:56:18;;;;;;;14.73;8.75;;;1.10;99.90;;;;;;5039068;27;20371;-74
2021/12/18 08:58:44;;;;;;;22.63;9.40;;;1.10;99.90;;;;;;5036186;27;20045;-74
2021/12/18 09:01:10;;;;;;;16.35;8.90;;;1.10;99.90;;;;;;5059885;27;20755;-75
2021/12/18 09:03:35;;;;;;;16.30;8.95;;;1.20;99.90;;;;;;5028673;28;20041;-74
2021/12/18 09:06:01;;;;;;;18.40;9.35;;;1.20;99.90;;;;;;5034612;27;20026;-74
2021/12/18 09:08:27;;;;;;;18.52;7.68;;;1.20;99.90;;;;;;5032812;28;20037;-75
2021/12/18 09:10:52;;;;;;;15.30;8.60;;;1.30;99.90;;;;;;5035243;27;20053;-75
2021/12/18 09:13:18;;;;;;;14.35;7.70;;;1.20;99.90;;;;;;5067483;27;20064;-74
2021/12/18 09:15:44;;;;;;;14.07;8.23;;;1.20;99.90;;;;;;5096591;27;20467;-75
2021/12/18 09:18:09;;;;;;;22.10;8.95;;;1.20;99.90;;;;;;5102848;27;20726;-75
2021/12/18 09:20:35;;;;;;;17.77;8.38;;;1.20;99.90;;;;;;5064487;27;20043;-75
2021/12/18 09:23:02;;;;;;;57.28;30.80;;;1.20;99.90;;;;;;5105544;27;20046;-75
2021/12/18 09:25:28;;;;;;;73.63;43.78;;;1.30;99.90;;;;;;5106311;27;20480;-73
2021/12/18 09:27:57;;;;;;;82.00;42.25;;;1.30;99.90;;;;;;5081053;27;20032;-75
2021/12/18 09:30:23;;;;;;;47.08;30.52;;;1.20;99.90;;;;;;5084084;27;20123;-74
2021/12/18 09:32:49;;;;;;;27.25;14.27;;;1.20;99.90;;;;;;5112637;27;20075;-75
2021/12/18 09:35:15;;;;;;;22.35;12.88;;;1.20;99.90;;;;;;5039081;28;20029;-74
2021/12/18 09:37:42;;;;;;;27.05;15.60;;;1.20;99.90;;;;;;5034730;28;20463;-75
2021/12/18 09:40:10;;;;;;;42.22;23.65;;;1.20;99.90;;;;;;5036945;28;20035;-74
2021/12/18 09:42:37;;;;;;;53.88;26.45;;;1.20;99.90;;;;;;5033868;28;20025;-74
2021/12/18 09:45:04;;;;;;;33.92;19.65;;;1.20;99.90;;;;;;5034791;28;20090;-74
2021/12/18 09:47:30;;;;;;;26.25;9.80;;;1.20;99.90;;;;;;5035460;28;20479;-74
2021/12/18 09:49:56;;;;;;;72.47;31.83;;;1.30;99.90;;;;;;5038723;28;20033;-74
2021/12/18 09:52:22;;;;;;;116.28;50.13;;;1.30;99.90;;;;;;5032340;28;20018;-75
2021/12/18 09:54:47;;;;;;;72.70;32.22;;;1.30;99.90;;;;;;5034057;28;20030;-74
2021/12/18 09:57:13;;;;;;;22.23;11.88;;;1.30;99.90;;;;;;5030802;28;20026;-75
2021/12/18 09:59:39;;;;;;;47.53;22.67;;;1.30;99.90;;;;;;5037290;28;20047;-74
2021/12/18 10:02:05;;;;;;;28.50;13.15;;;1.30;99.90;;;;;;5049725;28;20028;-74
2021/12/18 10:04:36;;;;;;;19.65;9.45;;;1.40;99.90;;;;;;5044654;28;20375;-75
2021/12/18 10:07:20;;;;;;;18.70;8.85;;;1.40;99.90;;;;;;5031836;28;20068;-74
2021/12/18 10:09:48;;;;;;;26.50;10.02;;;1.30;99.90;;;;;;5049889;28;20480;-74
2021/12/18 10:12:22;;;;;;;26.67;14.10;;;1.30;99.90;;;;;;5051024;28;20014;-75
2021/12/18 10:15:12;;;;;;;18.85;10.52;;;1.30;99.90;;;;;;5049982;28;20382;-74
2021/12/18 10:17:39;;;;;;;20.63;10.80;;;1.40;99.90;;;;;;5048431;27;20065;-74
2021/12/18 10:20:11;;;;;;;21.27;8.55;;;1.40;99.90;;;;;;5082214;27;20038;-74
2021/12/18 10:22:49;;;;;;;19.85;10.18;;;1.40;99.90;;;;;;5062220;27;20025;-75
2021/12/18 10:25:20;;;;;;;21.55;11.30;;;1.40;99.90;;;;;;5052657;27;20020;-75
2021/12/18 10:28:23;;;;;;;22.27;10.35;;;1.50;99.90;;;;;;5055886;27;20474;-74
2021/12/18 10:30:50;;;;;;;20.45;9.90;;;1.50;99.90;;;;;;5064385;27;20017;-76
2021/12/18 10:33:16;;;;;;;17.77;9.25;;;1.50;99.90;;;;;;5055299;27;20020;-76
2021/12/18 10:35:50;;;;;;;34.47;12.80;;;1.50;99.90;;;;;;5059635;27;20076;-75
2021/12/18 10:38:42;;;;;;;20.63;11.07;;;1.50;99.90;;;;;;5056631;27;20025;-76
2021/12/18 10:41:27;;;;;;;19.67;10.15;;;1.50;99.90;;;;;;5048984;27;20028;-75
2021/12/18 10:43:53;;;;;;;21.58;10.55;;;1.50;99.90;;;;;;5098517;27;20028;-75
2021/12/18 10:46:20;;;;;;;24.83;11.90;;;1.50;99.90;;;;;;5096011;27;20021;-75
2021/12/18 10:49:22;;;;;;;22.10;11.80;;;1.60;99.90;;;;;;5104343;27;20072;-75
2021/12/18 10:51:50;;;;;;;23.67;9.50;;;1.60;99.90;;;;;;5091107;27;20028;-74
2021/12/18 10:54:24;;;;;;;19.75;8.80;;;1.60;99.90;;;;;;5057350;27;20029;-74
2021/12/18 10:56:52;;;;;;;19.00;9.68;;;1.70;99.90;;;;;;5087529;27;20021;-75
2021/12/18 10:59:43;;;;;;;22.30;10.55;;;1.70;99.90;;;;;;5093463;27;20466;-75
2021/12/18 11:02:14;;;;;;;21.30;9.00;;;1.70;99.90;;;;;;5059232;27;20089;-75
2021/12/18 11:04:43;;;;;;;19.48;9.57;;;1.80;99.90;;;;;;5082522;27;20019;-75
2021/12/18 11:07:20;;;;;;;21.27;8.70;;;1.70;99.90;;;;;;5047968;28;20025;-75
2021/12/18 11:10:00;;;;;;;25.70;10.80;;;1.80;99.90;;;;;;5048299;28;20036;-75
2021/12/18 11:15:10;;;;;;;20.90;10.43;;;1.80;99.90;;;;;;5029734;28;20083;-75
2021/12/18 11:17:36;;;;;;;23.88;11.50;;;1.90;99.90;;;;;;5028799;28;20428;-75
2021/12/18 11:20:03;;;;;;;16.58;9.00;;;1.90;99.90;;;;;;5028634;28;20029;-74
2021/12/18 11:22:28;;;;;;;18.95;10.27;;;1.90;99.90;;;;;;5029871;28;20046;-75
2021/12/18 11:25:01;;;;;;;17.80;8.65;;;1.90;99.90;;;;;;5030069;28;20474;-76
2021/12/18 11:27:28;;;;;;;20.17;9.75;;;1.80;99.90;;;;;;5028647;28;20433;-76
2021/12/18 11:29:59;;;;;;;23.25;11.02;;;1.80;99.90;;;;;;5028799;28;20021;-75
2021/12/18 11:32:31;;;;;;;18.60;8.98;;;1.80;99.90;;;;;;5028731;28;20386;-79
2021/12/18 11:35:03;;;;;;;20.02;10.25;;;1.90;99.90;;;;;;5028817;28;20022;-80
2021/12/18 11:37:40;;;;;;;17.08;9.73;;;1.90;99.90;;;;;;5035763;28;20021;-79
2021/12/18 11:40:09;;;;;;;18.98;9.52;;;1.80;99.90;;;;;;5048484;28;20036;-79
2021/12/18 11:42:34;;;;;;;16.85;8.38;;;1.80;99.90;;;;;;5048365;28;20065;-79
2021/12/18 11:45:03;;;;;;;17.25;10.10;;;1.80;99.90;;;;;;5049699;28;20029;-78
2021/12/18 11:47:35;;;;;;;19.17;9.95;;;1.80;99.90;;;;;;5049859;28;20021;-79
2021/12/18 11:50:28;;;;;;;20.88;10.20;;;1.80;99.90;;;;;;5048775;28;20419;-79
2021/12/18 11:53:02;;;;;;;;;;;1.80;99.90;;;;;;5035205;28;20022;-78
2021/12/18 11:55:35;;;;;;;20.58;9.85;;;1.80;99.90;;;;;;5032001;28;19924;-78
2021/12/18 11:58:13;;;;;;;17.67;8.52;;;1.90;99.90;;;;;;5033167;28;20053;-78
2021/12/18 12:00:43;;;;;;;18.55;9.35;;;1.80;99.90;;;;;;5035524;28;20041;-79
2021/12/18 12:03:11;;;;;;;26.65;10.55;;;1.90;99.90;;;;;;5037177;28;20029;-77
2021/12/18 12:05:38;;;;;;;24.50;11.43;;;1.80;99.90;;;;;;5036660;28;20489;-78
2021/12/18 12:08:22;;;;;;;25.08;10.48;;;1.80;99.90;;;;;;5038561;28;20033;-77
2021/12/18 12:11:16;;;;;;;23.38;9.98;;;1.80;99.90;;;;;;5037148;28;20029;-77
2021/12/18 12:14:03;;;;;;;24.60;11.18;;;1.80;99.90;;;;;;5035127;28;20038;-77
2021/12/18 12:16:44;;;;;;;20.67;10.57;;;1.80;99.90;;;;;;5034834;28;20029;-77
2021/12/18 12:19:18;;;;;;;19.70;10.05;;;1.80;99.90;;;;;;5038463;28;20048;-77
2021/12/18 12:21:53;;;;;;;34.28;11.88;;;1.80;99.90;;;;;;5036694;28;20057;-76
2021/12/18 12:24:21;;;;;;;23.08;12.07;;;1.80;99.90;;;;;;5038776;28;20025;-76
2021/12/18 12:26:49;;;;;;;22.45;11.30;;;1.80;99.90;;;;;;5041280;28;20025;-79
2021/12/18 12:29:17;;;;;;;23.30;12.23;;;1.80;99.90;;;;;;5038114;28;20057;-78
2021/12/18 12:31:58;;;;;;;23.77;11.52;;;1.80;99.90;;;;;;5037037;28;20054;-78
2021/12/18 12:34:25;;;;;;;23.23;11.63;;;1.80;99.90;;;;;;5037584;27;20026;-79
2021/12/18 12:36:58;;;;;;;24.10;11.40;;;1.80;99.90;;;;;;5039867;27;20022;-78
2021/12/18 12:39:25;;;;;;;25.15;11.57;;;1.80;99.90;;;;;;5038908;27;20187;-78
2021/12/18 12:41:52;;;;;;;28.17;13.13;;;1.70;99.90;;;;;;5039692;27;20073;-78
2021/12/18 12:44:29;;;;;;;24.85;10.55;;;1.70;99.90;;;;;;5037028;27;20064;-77
2021/12/18 12:47:15;;;;;;;19.10;11.73;;;1.70;99.90;;;;;;5040486;27;20420;-78
2021/12/18 12:49:43;;;;;;;39.70;21.10;;;1.70;99.90;;;;;;5040212;27;20580;-78
2021/12/18 12:52:16;;;;;;;26.60;12.88;;;1.70;99.90;;;;;;5035366;27;20017;-78
2021/12/18 12:54:45;;;;;;;37.47;25.42;;;1.70;99.90;;;;;;5036563;28;20029;-78
2021/12/18 12:57:27;;;;;;;35.65;20.98;;;1.80;99.90;;;;;;5036910;28;20033;-78
2021/12/18 12:59:59;;;;;;;28.52;14.07;;;1.70;99.90;;;;;;5039396;28;20048;-79
2021/12/18 13:02:29;;;;;;;40.05;17.25;;;1.70;99.90;;;;;;5066749;27;20025;-79
2021/12/18 13:05:11;;;;;;;39.67;18.52;;;1.70;99.90;;;;;;5064331;27;20029;-79
2021/12/18 13:07:49;;;;;;;44.75;23.88;;;1.70;99.90;;;;;;5048091;27;20033;-78
2021/12/18 13:10:27;;;;;;;54.15;30.40;;;1.70;99.90;;;;;;5057265;27;20037;-79
2021/12/18 13:12:54;;;;;;;103.85;44.38;;;1.70;99.90;;;;;;5050992;27;20608;-79
2021/12/18 13:15:20;;;;;;;47.40;20.20;;;1.70;99.90;;;;;;5063969;27;20066;-79
2021/12/18 13:17:46;;;;;;;43.38;20.00;;;1.60;99.90;;;;;;5058731;27;20076;-79
2021/12/18 13:20:12;;;;;;;89.57;43.65;;;1.60;99.90;;;;;;5057993;27;20458;-75
2021/12/18 13:22:37;;;;;;;73.90;36.38;;;1.70;99.90;;;;;;5065472;27;20021;-79
2021/12/18 13:25:12;;;;;;;65.75;27.80;;;1.70;99.90;;;;;;5050187;27;20022;-78
2021/12/18 13:27:41;;;;;;;66.35;29.25;;;1.70;99.90;;;;;;5060028;27;20068;-78
2021/12/18 13:30:13;;;;;;;63.05;26.35;;;1.60;99.90;;;;;;5078745;27;20010;-78
2021/12/18 13:32:57;;;;;;;44.80;20.95;;;1.60;99.90;;;;;;5058266;27;20170;-78
2021/12/18 13:35:25;;;;;;;40.40;22.90;;;1.60;99.90;;;;;;5073457;27;20029;-78
2021/12/18 13:37:58;;;;;;;48.05;23.05;;;1.60;99.90;;;;;;5045305;27;20035;-78
2021/12/18 13:40:25;;;;;;;54.13;23.38;;;1.60;99.90;;;;;;5043022;27;20041;-79